sensor_id;sensor_type;location;lat;lon;timestamp;pressure;altitude;pressure_sealevel;temperature;humidity
23427;BME280;41148;45.420;10.952;2023-02-27T00:01:07;100382.78;;;5.81;43.40
23427;BME280;41148;45.420;10.952;2023-02-27T00:03:35;100384.50;;;5.84;43.63
23427;BME280;41148;45.420;10.952;2023-02-27T00:06:03;100390.59;;;5.87;43.65
23427;BME280;41148;45.420;10.952;2023-02-27T00:08:30;100396.00;;;5.81;43.56
23427;BME280;41148;45.420;10.952;2023-02-27T00:10:59;100398.66;;;5.80;43.89
23427;BME280;41148;45.420;10.952;2023-02-27T00:13:26;100403.09;;;5.76;44.15
23427;BME280;41148;45.420;10.952;2023-02-27T00:15:53;100408.38;;;5.79;44.19
23427;BME280;41148;45.420;10.952;2023-02-27T00:18:22;100422.56;;;5.70;44.58
23427;BME280;41148;45.420;10.952;2023-02-27T00:20:49;100432.19;;;5.74;45.68
23427;BME280;41148;45.420;10.952;2023-02-27T00:23:17;100442.00;;;5.65;47.88
23427;BME280;41148;45.420;10.952;2023-02-27T00:25:44;100450.88;;;5.59;49.11
23427;BME280;41148;45.420;10.952;2023-02-27T00:28:12;100460.66;;;5.51;50.16
23427;BME280;41148;45.420;10.952;2023-02-27T00:30:39;100473.06;;;5.44;51.38
23427;BME280;41148;45.420;10.952;2023-02-27T00:33:07;100476.72;;;5.31;52.57
23427;BME280;41148;45.420;10.952;2023-02-27T00:35:35;100467.97;;;5.26;52.99
23427;BME280;41148;45.420;10.952;2023-02-27T00:38:02;100463.56;;;5.27;53.59
23427;BME280;41148;45.420;10.952;2023-02-27T00:40:29;100469.66;;;5.33;53.69
23427;BME280;41148;45.420;10.952;2023-02-27T00:42:57;100469.72;;;5.27;53.80
23427;BME280;41148;45.420;10.952;2023-02-27T00:45:24;100473.25;;;5.26;53.93
23427;BME280;41148;45.420;10.952;2023-02-27T00:47:51;100468.81;;;5.28;53.97
23427;BME280;41148;45.420;10.952;2023-02-27T00:50:19;100464.47;;;5.24;54.36
23427;BME280;41148;45.420;10.952;2023-02-27T00:52:46;100472.41;;;5.20;54.62
23427;BME280;41148;45.420;10.952;2023-02-27T00:55:14;100468.91;;;5.22;54.63
23427;BME280;41148;45.420;10.952;2023-02-27T00:57:42;100477.69;;;5.24;54.61
23427;BME280;41148;45.420;10.952;2023-02-27T01:00:10;100478.59;;;5.18;54.46
23427;BME280;41148;45.420;10.952;2023-02-27T01:02:38;100476.81;;;5.19;54.62
23427;BME280;41148;45.420;10.952;2023-02-27T01:05:07;100489.16;;;5.22;54.56
23427;BME280;41148;45.420;10.952;2023-02-27T01:07:36;100467.16;;;5.18;54.40
23427;BME280;41148;45.420;10.952;2023-02-27T01:10:05;100477.72;;;5.21;53.91
23427;BME280;41148;45.420;10.952;2023-02-27T01:12:33;100482.81;;;5.36;53.85
23427;BME280;41148;45.420;10.952;2023-02-27T01:15:01;100493.44;;;5.30;53.93
23427;BME280;41148;45.420;10.952;2023-02-27T01:17:28;100491.56;;;5.44;53.70
23427;BME280;41148;45.420;10.952;2023-02-27T01:19:55;100511.84;;;5.41;53.64
23427;BME280;41148;45.420;10.952;2023-02-27T01:22:23;100503.13;;;5.33;53.68
23427;BME280;41148;45.420;10.952;2023-02-27T01:24:50;100491.69;;;5.32;53.60
23427;BME280;41148;45.420;10.952;2023-02-27T01:27:18;100498.72;;;5.30;53.87
23427;BME280;41148;45.420;10.952;2023-02-27T01:29:45;100502.06;;;5.49;53.62
23427;BME280;41148;45.420;10.952;2023-02-27T01:32:13;100498.53;;;5.52;53.12
23427;BME280;41148;45.420;10.952;2023-02-27T01:34:40;100486.31;;;5.41;53.44
23427;BME280;41148;45.420;10.952;2023-02-27T01:37:08;100492.50;;;5.40;53.15
23427;BME280;41148;45.420;10.952;2023-02-27T01:39:35;100489.72;;;5.50;53.13
23427;BME280;41148;45.420;10.952;2023-02-27T01:42:19;100485.41;;;5.42;53.56
23427;BME280;41148;45.420;10.952;2023-02-27T01:45:18;100486.22;;;5.51;53.63
23427;BME280;41148;45.420;10.952;2023-02-27T01:47:50;100496.66;;;5.61;53.53
23427;BME280;41148;45.420;10.952;2023-02-27T01:50:19;100494.06;;;5.57;53.33
23427;BME280;41148;45.420;10.952;2023-02-27T01:52:51;100501.13;;;5.56;53.26
23427;BME280;41148;45.420;10.952;2023-02-27T01:55:20;100501.13;;;5.56;53.34
23427;BME280;41148;45.420;10.952;2023-02-27T01:57:49;100500.09;;;5.71;52.80
23427;BME280;41148;45.420;10.952;2023-02-27T02:00:18;100498.22;;;5.78;52.67
23427;BME280;41148;45.420;10.952;2023-02-27T02:02:56;100490.31;;;5.76;52.56
23427;BME280;41148;45.420;10.952;2023-02-27T02:05:26;100502.69;;;5.74;51.95
23427;BME280;41148;45.420;10.952;2023-02-27T02:07:56;100503.44;;;5.85;51.80
23427;BME280;41148;45.420;10.952;2023-02-27T02:10:26;100503.38;;;5.94;51.17
23427;BME280;41148;45.420;10.952;2023-02-27T02:12:55;100492.06;;;5.77;51.62
23427;BME280;41148;45.420;10.952;2023-02-27T02:15:26;100485.88;;;5.78;51.84
23427;BME280;41148;45.420;10.952;2023-02-27T02:20:55;100499.09;;;5.81;51.71
23427;BME280;41148;45.420;10.952;2023-02-27T02:40:15;100519.56;;;5.62;51.41
23427;BME280;41148;45.420;10.952;2023-02-27T02:48:25;100538.97;;;5.58;51.33
23427;BME280;41148;45.420;10.952;2023-02-27T02:51:23;100542.50;;;5.60;51.59
23427;BME280;41148;45.420;10.952;2023-02-27T02:54:10;100538.19;;;5.50;51.50
23427;BME280;41148;45.420;10.952;2023-02-27T02:56:43;100559.22;;;5.58;51.33
23427;BME280;41148;45.420;10.952;2023-02-27T03:01:56;100567.22;;;5.53;51.52
23427;BME280;41148;45.420;10.952;2023-02-27T03:04:54;100550.38;;;5.65;50.65
23427;BME280;41148;45.420;10.952;2023-02-27T03:07:39;100542.50;;;5.57;50.80
23427;BME280;41148;45.420;10.952;2023-02-27T03:10:12;100546.00;;;5.59;50.18
23427;BME280;41148;45.420;10.952;2023-02-27T03:12:47;100568.00;;;5.64;49.96
23427;BME280;41148;45.420;10.952;2023-02-27T03:15:20;100558.47;;;5.46;50.21
23427;BME280;41148;45.420;10.952;2023-02-27T03:20:25;100561.19;;;5.40;50.14
23427;BME280;41148;45.420;10.952;2023-02-27T03:22:58;100572.63;;;5.39;50.63
23427;BME280;41148;45.420;10.952;2023-02-27T03:25:30;100572.63;;;5.39;50.98
23427;BME280;41148;45.420;10.952;2023-02-27T03:28:01;100577.06;;;5.34;51.09
23427;BME280;41148;45.420;10.952;2023-02-27T03:30:34;100578.69;;;5.52;50.99
23427;BME280;41148;45.420;10.952;2023-02-27T03:33:07;100582.19;;;5.54;50.60
23427;BME280;41148;45.420;10.952;2023-02-27T03:36:14;100583.94;;;5.54;50.29
23427;BME280;41148;45.420;10.952;2023-02-27T03:38:54;100578.75;;;5.44;50.26
23427;BME280;41148;45.420;10.952;2023-02-27T03:44:33;100590.16;;;5.46;50.25
23427;BME280;41148;45.420;10.952;2023-02-27T03:47:02;100592.88;;;5.39;50.09
23427;BME280;41148;45.420;10.952;2023-02-27T03:49:30;100594.63;;;5.43;49.75
23427;BME280;41148;45.420;10.952;2023-02-27T03:51:58;100608.75;;;5.36;50.18
23427;BME280;41148;45.420;10.952;2023-02-27T03:54:30;100602.56;;;5.40;50.09
23427;BME280;41148;45.420;10.952;2023-02-27T03:57:02;100616.66;;;5.40;49.88
23427;BME280;41148;45.420;10.952;2023-02-27T03:59:31;100610.50;;;5.37;49.78
23427;BME280;41148;45.420;10.952;2023-02-27T04:02:00;100600.75;;;5.45;49.36
23427;BME280;41148;45.420;10.952;2023-02-27T04:04:31;100620.09;;;5.49;49.63
23427;BME280;41148;45.420;10.952;2023-02-27T04:07:17;100593.00;;;5.25;49.58
23427;BME280;41148;45.420;10.952;2023-02-27T04:21:00;100614.03;;;5.40;48.54
23427;BME280;41148;45.420;10.952;2023-02-27T04:26:47;100618.47;;;5.34;48.30
23427;BME280;41148;45.420;10.952;2023-02-27T04:32:40;100609.69;;;5.32;48.35
23427;BME280;41148;45.420;10.952;2023-02-27T04:35:33;100614.09;;;5.33;48.21
23427;BME280;41148;45.420;10.952;2023-02-27T04:40:46;100621.13;;;5.34;48.52
23427;BME280;41148;45.420;10.952;2023-02-27T04:43:16;100615.84;;;5.29;48.40
23427;BME280;41148;45.420;10.952;2023-02-27T04:45:46;100621.97;;;5.36;48.51
23427;BME280;41148;45.420;10.952;2023-02-27T04:48:25;100621.13;;;5.32;48.54
23427;BME280;41148;45.420;10.952;2023-02-27T04:51:09;100627.25;;;5.36;48.50
23427;BME280;41148;45.420;10.952;2023-02-27T04:53:53;100623.75;;;5.35;48.21
23427;BME280;41148;45.420;10.952;2023-02-27T04:56:44;100613.28;;;5.23;47.53
23427;BME280;41148;45.420;10.952;2023-02-27T04:59:20;100604.50;;;5.18;47.90
23427;BME280;41148;45.420;10.952;2023-02-27T05:02:00;100628.09;;;5.42;47.48
23427;BME280;41148;45.420;10.952;2023-02-27T05:04:33;100633.31;;;5.47;47.44
23427;BME280;41148;45.420;10.952;2023-02-27T05:07:03;100623.66;;;5.44;47.73
23427;BME280;41148;45.420;10.952;2023-02-27T05:09:54;100627.22;;;5.42;47.81
23427;BME280;41148;45.420;10.952;2023-02-27T05:12:35;100621.94;;;5.42;47.75
23427;BME280;41148;45.420;10.952;2023-02-27T05:17:49;100626.34;;;5.41;48.07
23427;BME280;41148;45.420;10.952;2023-02-27T05:20:18;100621.94;;;5.42;48.10
23427;BME280;41148;45.420;10.952;2023-02-27T05:25:47;100623.69;;;5.40;48.63
23427;BME280;41148;45.420;10.952;2023-02-27T05:30:55;100623.69;;;5.38;47.49
23427;BME280;41148;45.420;10.952;2023-02-27T05:33:32;100627.16;;;5.48;47.27
23427;BME280;41148;45.420;10.952;2023-02-27T05:36:07;100635.03;;;5.56;47.08
23427;BME280;41148;45.420;10.952;2023-02-27T05:38:40;100635.00;;;5.57;47.42
23427;BME280;41148;45.420;10.952;2023-02-27T05:41:14;100640.22;;;5.66;46.86
23427;BME280;41148;45.420;10.952;2023-02-27T05:43:46;100641.16;;;5.58;47.28
23427;BME280;41148;45.420;10.952;2023-02-27T05:46:24;100655.25;;;5.60;46.57
23427;BME280;41148;45.420;10.952;2023-02-27T05:48:56;100649.97;;;5.57;46.24
23427;BME280;41148;45.420;10.952;2023-02-27T05:51:28;100651.72;;;5.58;46.40
23427;BME280;41148;45.420;10.952;2023-02-27T05:54:18;100644.69;;;5.58;46.53
23427;BME280;41148;45.420;10.952;2023-02-27T05:56:49;100656.09;;;5.65;45.99
23427;BME280;41148;45.420;10.952;2023-02-27T05:59:27;100647.34;;;5.55;46.25
23427;BME280;41148;45.420;10.952;2023-02-27T06:01:58;100653.56;;;5.51;46.42
23427;BME280;41148;45.420;10.952;2023-02-27T06:04:26;100661.50;;;5.46;46.68
23427;BME280;41148;45.420;10.952;2023-02-27T06:06:55;100659.56;;;5.68;46.27
23427;BME280;41148;45.420;10.952;2023-02-27T06:09:23;100670.22;;;5.62;46.27
23427;BME280;41148;45.420;10.952;2023-02-27T06:11:51;100661.38;;;5.63;46.07
23427;BME280;41148;45.420;10.952;2023-02-27T06:14:18;100672.72;;;5.79;45.97
23427;BME280;41148;45.420;10.952;2023-02-27T06:16:45;100686.88;;;5.72;45.93
23427;BME280;41148;45.420;10.952;2023-02-27T06:19:13;100680.63;;;5.78;46.03
23427;BME280;41148;45.420;10.952;2023-02-27T06:21:41;100663.22;;;5.55;46.14
23427;BME280;41148;45.420;10.952;2023-02-27T06:24:08;100675.44;;;5.71;46.10
23427;BME280;41148;45.420;10.952;2023-02-27T06:26:35;100678.94;;;5.72;45.95
23427;BME280;41148;45.420;10.952;2023-02-27T06:29:03;100689.53;;;5.69;45.97
23427;BME280;41148;45.420;10.952;2023-02-27T06:31:30;100693.06;;;5.68;46.05
23427;BME280;41148;45.420;10.952;2023-02-27T06:33:58;100703.66;;;5.69;45.84
23427;BME280;41148;45.420;10.952;2023-02-27T06:36:25;100707.94;;;5.78;45.56
23427;BME280;41148;45.420;10.952;2023-02-27T06:38:55;100697.44;;;5.69;45.63
23427;BME280;41148;45.420;10.952;2023-02-27T06:41:24;100719.47;;;5.72;45.77
23427;BME280;41148;45.420;10.952;2023-02-27T06:43:51;100703.63;;;5.72;45.42
23427;BME280;41148;45.420;10.952;2023-02-27T06:46:19;100722.09;;;5.75;45.38
23427;BME280;41148;45.420;10.952;2023-02-27T06:48:46;100715.09;;;5.65;45.82
23427;BME280;41148;45.420;10.952;2023-02-27T06:51:14;100730.00;;;5.80;45.24
23427;BME280;41148;45.420;10.952;2023-02-27T06:53:41;100734.47;;;5.67;45.40
23427;BME280;41148;45.420;10.952;2023-02-27T06:56:09;100737.13;;;5.67;45.89
23427;BME280;41148;45.420;10.952;2023-02-27T06:58:36;100730.94;;;5.70;45.42
23427;BME280;41148;45.420;10.952;2023-02-27T07:01:03;100740.63;;;5.68;45.54
23427;BME280;41148;45.420;10.952;2023-02-27T07:03:31;100741.59;;;5.58;45.51
23427;BME280;41148;45.420;10.952;2023-02-27T07:05:58;100760.09;;;5.61;45.28
23427;BME280;41148;45.420;10.952;2023-02-27T07:08:26;100756.56;;;5.60;45.44
23427;BME280;41148;45.420;10.952;2023-02-27T07:10:54;100744.22;;;5.59;45.58
23427;BME280;41148;45.420;10.952;2023-02-27T07:13:22;100751.28;;;5.60;45.92
23427;BME280;41148;45.420;10.952;2023-02-27T07:15:49;100752.28;;;5.42;46.19
23427;BME280;41148;45.420;10.952;2023-02-27T07:18:17;100764.53;;;5.54;46.63
23427;BME280;41148;45.420;10.952;2023-02-27T07:20:44;100770.66;;;5.59;46.58
23427;BME280;41148;45.420;10.952;2023-02-27T07:23:16;100768.91;;;5.58;46.88
23427;BME280;41148;45.420;10.952;2023-02-27T07:25:45;100770.72;;;5.47;46.91
23427;BME280;41148;45.420;10.952;2023-02-27T07:28:13;100776.00;;;5.47;47.21
23427;BME280;41148;45.420;10.952;2023-02-27T07:30:40;100777.84;;;5.40;47.40
23427;BME280;41148;45.420;10.952;2023-02-27T07:33:08;100790.13;;;5.44;47.21
23427;BME280;41148;45.420;10.952;2023-02-27T07:35:35;100796.25;;;5.50;47.04
23427;BME280;41148;45.420;10.952;2023-02-27T07:38:03;100786.56;;;5.49;46.85
23427;BME280;41148;45.420;10.952;2023-02-27T07:40:31;100798.88;;;5.56;46.74
23427;BME280;41148;45.420;10.952;2023-02-27T07:42:58;100804.19;;;5.48;45.96
23427;BME280;41148;45.420;10.952;2023-02-27T07:45:26;100813.88;;;5.49;46.48
23427;BME280;41148;45.420;10.952;2023-02-27T07:47:54;100803.34;;;5.38;45.72
23427;BME280;41148;45.420;10.952;2023-02-27T07:50:21;100824.50;;;5.41;45.97
23427;BME280;41148;45.420;10.952;2023-02-27T07:52:50;100824.53;;;5.34;45.92
23427;BME280;41148;45.420;10.952;2023-02-27T07:55:36;100819.22;;;5.37;45.32
23427;BME280;41148;45.420;10.952;2023-02-27T07:58:04;100813.97;;;5.34;45.68
23427;BME280;41148;45.420;10.952;2023-02-27T08:00:31;100809.56;;;5.34;45.57
23427;BME280;41148;45.420;10.952;2023-02-27T08:02:59;100806.03;;;5.35;45.79
23427;BME280;41148;45.420;10.952;2023-02-27T08:05:27;100827.97;;;5.50;45.07
23427;BME280;41148;45.420;10.952;2023-02-27T08:07:55;100839.44;;;5.52;44.80
23427;BME280;41148;45.420;10.952;2023-02-27T08:10:22;100827.97;;;5.53;44.82
23427;BME280;41148;45.420;10.952;2023-02-27T08:12:51;100827.13;;;5.43;45.21
23427;BME280;41148;45.420;10.952;2023-02-27T08:15:18;100828.88;;;5.47;44.98
23427;BME280;41148;45.420;10.952;2023-02-27T08:17:46;100830.56;;;5.60;44.34
23427;BME280;41148;45.420;10.952;2023-02-27T08:20:14;100834.09;;;5.58;44.60
23427;BME280;41148;45.420;10.952;2023-02-27T08:22:42;100819.16;;;5.54;44.27
23427;BME280;41148;45.420;10.952;2023-02-27T08:25:10;100828.81;;;5.61;44.39
23427;BME280;41148;45.420;10.952;2023-02-27T08:27:38;100839.34;;;5.70;44.64
23427;BME280;41148;45.420;10.952;2023-02-27T08:30:07;100838.41;;;5.74;44.14
23427;BME280;41148;45.420;10.952;2023-02-27T08:32:35;100813.78;;;5.70;44.25
23427;BME280;41148;45.420;10.952;2023-02-27T08:35:03;100829.53;;;5.84;43.93
23427;BME280;41148;45.420;10.952;2023-02-27T08:37:31;100829.59;;;5.80;43.95
23427;BME280;41148;45.420;10.952;2023-02-27T08:39:58;100835.75;;;5.80;43.93
23427;BME280;41148;45.420;10.952;2023-02-27T08:42:26;100842.69;;;5.98;43.60
23427;BME280;41148;45.420;10.952;2023-02-27T08:44:53;100841.88;;;5.91;43.25
23427;BME280;41148;45.420;10.952;2023-02-27T08:47:22;100826.00;;;5.90;43.57
23427;BME280;41148;45.420;10.952;2023-02-27T08:49:50;100828.53;;;6.07;43.29
23427;BME280;41148;45.420;10.952;2023-02-27T08:52:17;100846.97;;;6.17;42.99
23427;BME280;41148;45.420;10.952;2023-02-27T08:54:45;100829.44;;;6.04;42.87
23427;BME280;41148;45.420;10.952;2023-02-27T08:57:12;100830.38;;;5.88;43.20
23427;BME280;41148;45.420;10.952;2023-02-27T08:59:40;100843.47;;;6.14;42.94
23427;BME280;41148;45.420;10.952;2023-02-27T09:02:08;100845.22;;;6.16;42.83
23427;BME280;41148;45.420;10.952;2023-02-27T09:04:36;100849.63;;;6.16;42.81
23427;BME280;41148;45.420;10.952;2023-02-27T09:07:22;100841.63;;;6.28;42.78
23427;BME280;41148;45.420;10.952;2023-02-27T09:09:49;100846.97;;;6.20;42.90
23427;BME280;41148;45.420;10.952;2023-02-27T09:12:16;100854.75;;;6.40;42.72
23427;BME280;41148;45.420;10.952;2023-02-27T09:14:44;100855.56;;;6.47;42.66
23427;BME280;41148;45.420;10.952;2023-02-27T09:17:11;100851.13;;;6.46;42.28
23427;BME280;41148;45.420;10.952;2023-02-27T09:19:38;100862.59;;;6.46;41.88
23427;BME280;41148;45.420;10.952;2023-02-27T09:22:06;100860.78;;;6.53;42.12
23427;BME280;41148;45.420;10.952;2023-02-27T09:24:33;100854.66;;;6.49;42.35
23427;BME280;41148;45.420;10.952;2023-02-27T09:27:00;100859.78;;;6.69;41.98
23427;BME280;41148;45.420;10.952;2023-02-27T09:29:28;100861.47;;;6.76;41.91
23427;BME280;41148;45.420;10.952;2023-02-27T09:31:55;100855.16;;;6.89;41.51
23427;BME280;41148;45.420;10.952;2023-02-27T09:34:23;100857.78;;;6.91;41.56
23427;BME280;41148;45.420;10.952;2023-02-27T09:36:50;100857.00;;;6.81;41.18
23427;BME280;41148;45.420;10.952;2023-02-27T09:39:18;100867.59;;;6.81;41.20
23427;BME280;41148;45.420;10.952;2023-02-27T09:41:54;100872.97;;;6.74;41.38
23427;BME280;41148;45.420;10.952;2023-02-27T09:44:43;100880.09;;;6.69;41.30
23427;BME280;41148;45.420;10.952;2023-02-27T09:52:23;100887.03;;;6.79;41.21
23427;BME280;41148;45.420;10.952;2023-02-27T09:54:51;100886.06;;;6.89;40.93
23427;BME280;41148;45.420;10.952;2023-02-27T09:59:58;100883.44;;;6.87;40.76
23427;BME280;41148;45.420;10.952;2023-02-27T10:02:39;100888.66;;;6.92;40.87
23427;BME280;41148;45.420;10.952;2023-02-27T10:08:31;100893.88;;;7.01;40.41
23427;BME280;41148;45.420;10.952;2023-02-27T10:11:06;100887.63;;;7.08;40.13
23427;BME280;41148;45.420;10.952;2023-02-27T10:16:27;100888.31;;;7.27;39.84
23427;BME280;41148;45.420;10.952;2023-02-27T10:18:59;100890.06;;;7.28;40.00
23427;BME280;41148;45.420;10.952;2023-02-27T10:21:39;100891.81;;;7.29;39.81
23427;BME280;41148;45.420;10.952;2023-02-27T10:24:37;100893.47;;;7.38;40.29
23427;BME280;41148;45.420;10.952;2023-02-27T10:27:13;100891.59;;;7.49;39.93
23427;BME280;41148;45.420;10.952;2023-02-27T10:29:42;100894.94;;;7.65;39.86
23427;BME280;41148;45.420;10.952;2023-02-27T10:32:24;100894.84;;;7.69;40.02
23427;BME280;41148;45.420;10.952;2023-02-27T10:35:17;100890.44;;;7.68;39.36
23427;BME280;41148;45.420;10.952;2023-02-27T10:37:53;100903.47;;;7.87;39.44
23427;BME280;41148;45.420;10.952;2023-02-27T10:40:22;100887.66;;;7.79;39.39
23427;BME280;41148;45.420;10.952;2023-02-27T10:42:52;100892.81;;;7.90;38.34
23427;BME280;41148;45.420;10.952;2023-02-27T10:45:20;100888.50;;;7.83;38.35
23427;BME280;41148;45.420;10.952;2023-02-27T10:47:48;100891.06;;;7.89;38.41
23427;BME280;41148;45.420;10.952;2023-02-27T10:50:30;100890.84;;;8.04;37.58
23427;BME280;41148;45.420;10.952;2023-02-27T10:53:00;100891.78;;;8.01;37.74
23427;BME280;41148;45.420;10.952;2023-02-27T10:55:38;100882.91;;;8.04;37.38
23427;BME280;41148;45.420;10.952;2023-02-27T10:58:06;100890.69;;;8.15;36.69
23427;BME280;41148;45.420;10.952;2023-02-27T11:00:40;100881.03;;;8.11;36.50
23427;BME280;41148;45.420;10.952;2023-02-27T11:03:21;100876.75;;;8.00;36.84
23427;BME280;41148;45.420;10.952;2023-02-27T11:05:58;100866.13;;;8.00;36.53
23427;BME280;41148;45.420;10.952;2023-02-27T11:08:28;100875.00;;;8.01;36.91
23427;BME280;41148;45.420;10.952;2023-02-27T11:11:04;100870.41;;;8.12;36.80
23427;BME280;41148;45.420;10.952;2023-02-27T11:13:38;100874.97;;;8.02;36.89
23427;BME280;41148;45.420;10.952;2023-02-27T11:16:14;100868.81;;;7.99;36.85
23427;BME280;41148;45.420;10.952;2023-02-27T11:18:44;100875.09;;;7.93;36.92
23427;BME280;41148;45.420;10.952;2023-02-27T11:21:14;100864.28;;;8.07;37.17
23427;BME280;41148;45.420;10.952;2023-02-27T11:23:57;100868.13;;;7.86;36.68
23427;BME280;41148;45.420;10.952;2023-02-27T11:26:29;100853.88;;;7.93;36.79
23427;BME280;41148;45.420;10.952;2023-02-27T11:29:19;100856.56;;;7.90;36.91
23427;BME280;41148;45.420;10.952;2023-02-27T11:31:57;100868.69;;;8.08;36.79
23427;BME280;41148;45.420;10.952;2023-02-27T11:34:33;100855.25;;;8.19;36.88
23427;BME280;41148;45.420;10.952;2023-02-27T11:37:06;100851.59;;;8.26;36.59
23427;BME280;41148;45.420;10.952;2023-02-27T11:39:50;100859.59;;;8.24;36.04
23427;BME280;41148;45.420;10.952;2023-02-27T11:42:29;100849.88;;;8.23;35.83
23427;BME280;41148;45.420;10.952;2023-02-27T11:45:00;100846.69;;;8.01;35.84
23427;BME280;41148;45.420;10.952;2023-02-27T11:47:35;100849.03;;;8.20;35.77
23427;BME280;41148;45.420;10.952;2023-02-27T11:53:04;100854.22;;;8.27;35.92
23427;BME280;41148;45.420;10.952;2023-02-27T11:55:38;100845.94;;;8.49;35.88
23427;BME280;41148;45.420;10.952;2023-02-27T11:58:19;100838.94;;;8.45;35.67
23427;BME280;41148;45.420;10.952;2023-02-27T12:00:53;100849.53;;;8.46;35.80
23427;BME280;41148;45.420;10.952;2023-02-27T12:03:35;100849.72;;;8.32;36.09
23427;BME280;41148;45.420;10.952;2023-02-27T12:06:30;100844.09;;;8.54;35.72
23427;BME280;41148;45.420;10.952;2023-02-27T12:09:08;100841.31;;;8.62;35.75
23427;BME280;41148;45.420;10.952;2023-02-27T12:11:43;100834.28;;;8.57;35.86
23427;BME280;41148;45.420;10.952;2023-02-27T12:15:14;100836.91;;;8.60;35.72
23427;BME280;41148;45.420;10.952;2023-02-27T12:20:00;100847.53;;;8.60;35.87
23427;BME280;41148;45.420;10.952;2023-02-27T12:22:34;100839.59;;;8.59;36.05
23427;BME280;41148;45.420;10.952;2023-02-27T12:25:09;100846.16;;;8.86;35.44
23427;BME280;41148;45.420;10.952;2023-02-27T12:27:53;100834.72;;;8.82;35.73
23427;BME280;41148;45.420;10.952;2023-02-27T12:30:35;100835.38;;;8.95;35.63
23427;BME280;41148;45.420;10.952;2023-02-27T12:33:18;100841.72;;;8.88;35.83
23427;BME280;41148;45.420;10.952;2023-02-27T12:35:54;100834.41;;;8.99;35.46
23427;BME280;41148;45.420;10.952;2023-02-27T12:38:24;100845.94;;;9.00;35.48
23427;BME280;41148;45.420;10.952;2023-02-27T12:43:25;100834.22;;;9.52;35.16
23427;BME280;41148;45.420;10.952;2023-02-27T12:46:22;100845.25;;;9.33;34.46
23427;BME280;41148;45.420;10.952;2023-02-27T12:54:21;100836.41;;;8.88;34.80
23427;BME280;41148;45.420;10.952;2023-02-27T12:59:46;100830.22;;;8.86;35.37
23427;BME280;41148;45.420;10.952;2023-02-27T13:05:49;100823.06;;;8.91;35.55
23427;BME280;41148;45.420;10.952;2023-02-27T13:08:40;100820.53;;;9.30;34.95
23427;BME280;41148;45.420;10.952;2023-02-27T13:11:52;100843.25;;;9.44;34.40
23427;BME280;41148;45.420;10.952;2023-02-27T13:14:46;100825.97;;;9.22;34.63
23427;BME280;41148;45.420;10.952;2023-02-27T13:17:23;100832.31;;;9.15;34.84
23427;BME280;41148;45.420;10.952;2023-02-27T13:22:37;100822.75;;;9.06;34.71
23427;BME280;41148;45.420;10.952;2023-02-27T13:25:13;100830.31;;;9.26;34.76
23427;BME280;41148;45.420;10.952;2023-02-27T13:27:57;100832.25;;;9.20;34.90
23427;BME280;41148;45.420;10.952;2023-02-27T13:36:12;100830.22;;;9.32;34.92
23427;BME280;41148;45.420;10.952;2023-02-27T13:38:47;100846.91;;;9.39;34.55
23427;BME280;41148;45.420;10.952;2023-02-27T13:43:58;100838.59;;;9.12;34.96
23427;BME280;41148;45.420;10.952;2023-02-27T13:46:32;100838.47;;;9.18;34.93
23427;BME280;41148;45.420;10.952;2023-02-27T13:51:53;100852.28;;;9.37;34.54
23427;BME280;41148;45.420;10.952;2023-02-27T13:54:26;100844.59;;;9.22;34.83
23427;BME280;41148;45.420;10.952;2023-02-27T13:59:41;100851.00;;;9.12;35.23
23427;BME280;41148;45.420;10.952;2023-02-27T14:02:38;100854.47;;;9.17;35.77
23427;BME280;41148;45.420;10.952;2023-02-27T14:05:32;100865.75;;;9.28;35.86
23427;BME280;41148;45.420;10.952;2023-02-27T14:08:10;100854.31;;;9.23;36.20
23427;BME280;41148;45.420;10.952;2023-02-27T14:10:54;100857.09;;;9.18;36.45
23427;BME280;41148;45.420;10.952;2023-02-27T14:22:02;100883.78;;;9.12;35.95
23427;BME280;41148;45.420;10.952;2023-02-27T14:24:54;100878.91;;;8.88;36.55
23427;BME280;41148;45.420;10.952;2023-02-27T14:27:35;100875.25;;;8.94;36.60
23427;BME280;41148;45.420;10.952;2023-02-27T14:30:41;100879.00;;;8.83;36.84
23427;BME280;41148;45.420;10.952;2023-02-27T14:33:18;100889.59;;;8.85;37.03
23427;BME280;41148;45.420;10.952;2023-02-27T14:36:06;100883.50;;;8.80;37.20
23427;BME280;41148;45.420;10.952;2023-02-27T14:38:35;100893.88;;;8.92;36.70
23427;BME280;41148;45.420;10.952;2023-02-27T14:43:40;100894.31;;;8.68;37.07
23427;BME280;41148;45.420;10.952;2023-02-27T14:46:19;100882.00;;;8.64;37.14
23427;BME280;41148;45.420;10.952;2023-02-27T14:48:59;100880.16;;;8.69;36.99
23427;BME280;41148;45.420;10.952;2023-02-27T14:51:32;100896.00;;;8.73;36.96
23427;BME280;41148;45.420;10.952;2023-02-27T14:54:05;100887.97;;;8.76;36.96
23427;BME280;41148;45.420;10.952;2023-02-27T14:56:33;100895.91;;;8.79;37.08
23427;BME280;41148;45.420;10.952;2023-02-27T14:59:00;100900.13;;;8.91;36.56
23427;BME280;41148;45.420;10.952;2023-02-27T15:01:34;100890.78;;;8.67;37.10
23427;BME280;41148;45.420;10.952;2023-02-27T15:04:03;100893.47;;;8.66;37.24
23427;BME280;41148;45.420;10.952;2023-02-27T15:06:39;100902.41;;;8.62;37.43
23427;BME280;41148;45.420;10.952;2023-02-27T15:09:20;100905.28;;;8.46;37.91
23427;BME280;41148;45.420;10.952;2023-02-27T15:11:51;100907.09;;;8.44;37.69
23427;BME280;41148;45.420;10.952;2023-02-27T15:14:33;100906.19;;;8.45;37.81
23427;BME280;41148;45.420;10.952;2023-02-27T15:17:03;100905.25;;;8.48;38.14
23427;BME280;41148;45.420;10.952;2023-02-27T15:19:31;100909.63;;;8.52;37.28
23427;BME280;41148;45.420;10.952;2023-02-27T15:22:00;100906.13;;;8.50;37.67
23427;BME280;41148;45.420;10.952;2023-02-27T15:24:33;100910.56;;;8.48;37.37